If you wish to contribute or participate in the discussions about articles you are invited to join SKYbrary as a registered user

 Actions

Alcantarilla Airport

From SKYbrary Wiki

LERI
Airport
ICAO: LERI
Summary
Name Alcantarilla Airport
Region Europe
Territory Spain ES.gif
Location
Serving Murcia
Elevation 76.2 m
250 ft
250 ft76.2 m
Type medium airport
Coordinates 37° 57' 4.00" N, 1° 13' 49.15" W
Runways
Designator Length Width Surface ROPS
7/25 938 m3,077.428 ft
45 m147.638 ft
ASP /


METAR
Observation LERI 161400Z 11016KT 060V150 9999 FEW060 24/10 Q1017 NOSIG
Station Murcia / Alcantarilla
Date/Time 16 April 2019 14:00:00
Wind direction 110°
Wind speed 16 kts
Lowest cloud amount few clouds
Temperature 24°C
Dew point 10°C
Humidity 41%
QNH 1017 hPa
Weather condition n/a